createdAt,value
2022-10-17T00:01:18.285Z,99989.16
2022-10-17T00:03:46.973Z,99992.41
2022-10-17T00:06:16.793Z,99989.47
2022-10-17T00:08:45.735Z,99994.59
2022-10-17T00:11:17.773Z,99984.03
2022-10-17T00:13:46.577Z,99977.56
2022-10-17T00:16:15.424Z,99972.41
2022-10-17T00:18:45.274Z,99979.41
2022-10-17T00:21:17.400Z,99965.31
2022-10-17T00:23:46.041Z,99970.91
2022-10-17T00:26:15.807Z,99965.41
2022-10-17T00:28:44.380Z,99956.53
2022-10-17T00:31:12.821Z,99962.31
2022-10-17T00:33:41.272Z,99956.94
2022-10-17T00:36:14.077Z,99942.28
2022-10-17T00:38:43.584Z,99958.81
2022-10-17T00:41:14.596Z,99957.34
2022-10-17T00:43:56.686Z,99947.47
2022-10-17T00:46:27.554Z,99951.31
2022-10-17T00:48:57.474Z,99963.28
2022-10-17T00:51:34.238Z,99947.41
2022-10-17T00:54:04.332Z,99954.69
2022-10-17T00:56:33.239Z,99955.00
2022-10-17T00:59:02.029Z,99950.34
2022-10-17T01:01:30.726Z,99937.94
2022-10-17T01:03:59.756Z,99953.00
2022-10-17T01:06:29.821Z,99964.63
2022-10-17T01:08:58.439Z,99955.00
2022-10-17T01:11:38.786Z,99938.72
2022-10-17T01:14:14.480Z,99945.22
2022-10-17T01:16:49.162Z,99943.44
2022-10-17T01:19:57.523Z,99946.44
2022-10-17T01:22:32.921Z,99949.75
2022-10-17T01:25:20.145Z,99936.47
2022-10-17T01:28:08.127Z,99935.41
2022-10-17T01:31:04.618Z,99940.03
2022-10-17T01:33:45.841Z,99940.56
2022-10-17T01:36:27.057Z,99944.09
2022-10-17T01:39:02.743Z,99950.03
2022-10-17T01:41:40.525Z,99947.91
2022-10-17T01:44:14.727Z,99939.16
2022-10-17T01:46:49.948Z,99934.34
2022-10-17T01:49:23.963Z,99947.31
2022-10-17T01:52:00.343Z,99951.16
2022-10-17T01:54:34.174Z,99943.16
2022-10-17T01:57:08.803Z,99942.53
2022-10-17T01:59:41.113Z,99949.72
2022-10-17T02:02:12.863Z,99948.00
2022-10-17T02:04:42.635Z,99949.81
2022-10-17T02:07:13.694Z,99965.03
2022-10-17T02:09:42.355Z,99961.13
2022-10-17T02:12:35.136Z,99953.47
2022-10-17T02:15:30.350Z,99959.34
2022-10-17T02:18:13.188Z,99961.00
2022-10-17T02:20:50.949Z,99964.25
2022-10-17T02:23:28.901Z,99951.34
2022-10-17T02:26:06.126Z,99954.34
2022-10-17T02:28:44.649Z,99951.13
2022-10-17T02:31:18.147Z,99952.03
2022-10-17T02:33:52.313Z,99941.75
2022-10-17T02:36:25.152Z,99958.88
2022-10-17T02:38:55.972Z,99952.09
2022-10-17T02:41:26.347Z,99958.13
2022-10-17T02:43:57.702Z,99959.41
2022-10-17T02:46:31.886Z,99960.88
2022-10-17T02:49:04.449Z,99953.91
2022-10-17T02:51:41.693Z,99962.00
2022-10-17T02:54:18.451Z,99971.38
2022-10-17T02:56:51.974Z,99965.97
2022-10-17T02:59:24.231Z,99970.75
2022-10-17T03:01:53.301Z,99957.22
2022-10-17T03:04:23.214Z,99968.84
2022-10-17T03:06:51.804Z,99969.69
2022-10-17T03:09:20.287Z,99974.13
2022-10-17T03:11:48.720Z,99966.00
2022-10-17T03:14:17.217Z,99967.81
2022-10-17T03:16:45.773Z,99968.78
2022-10-17T03:19:15.067Z,99972.69
2022-10-17T03:21:44.971Z,99976.50
2022-10-17T03:24:14.040Z,99977.09
2022-10-17T03:26:42.465Z,99968.19
2022-10-17T03:29:11.237Z,99969.09
2022-10-17T03:31:40.404Z,99963.03
2022-10-17T03:34:09.742Z,99958.75
2022-10-17T03:36:38.180Z,99959.28
2022-10-17T03:39:08.104Z,99956.31
2022-10-17T03:41:36.730Z,99965.91
2022-10-17T03:44:05.525Z,99966.88
2022-10-17T03:46:34.038Z,99970.44
2022-10-17T03:49:02.534Z,99978.81
2022-10-17T03:51:31.964Z,99978.88
2022-10-17T03:54:04.914Z,99981.91
2022-10-17T03:56:34.887Z,99974.28
2022-10-17T03:59:13.753Z,99990.50
2022-10-17T04:01:44.162Z,99990.22
2022-10-17T04:04:13.957Z,99986.28
2022-10-17T04:06:42.558Z,99996.75
2022-10-17T04:09:12.777Z,99998.13
2022-10-17T04:12:06.230Z,99993.59
2022-10-17T04:14:36.285Z,99996.75
2022-10-17T04:17:05.039Z,100004.22
2022-10-17T04:19:34.959Z,99991.91
2022-10-17T04:22:04.407Z,100001.38
2022-10-17T04:24:36.232Z,100010.81
2022-10-17T04:27:12.386Z,99999.97
2022-10-17T04:29:45.323Z,100001.75
2022-10-17T04:32:23.619Z,99997.06
2022-10-17T04:35:05.822Z,99995.03
2022-10-17T04:37:35.177Z,100008.25
2022-10-17T04:40:10.743Z,100006.22
2022-10-17T04:42:40.747Z,100006.75
2022-10-17T04:45:11.594Z,100013.84
2022-10-17T04:47:40.273Z,100012.94
2022-10-17T04:50:09.594Z,100018.47
2022-10-17T04:52:38.357Z,100009.84
2022-10-17T04:55:07.820Z,100016.78
2022-10-17T04:57:37.090Z,100019.97
2022-10-17T05:00:19.975Z,100012.47
2022-10-17T05:06:00.107Z,100041.16
2022-10-17T05:08:28.620Z,100045.25
2022-10-17T05:10:57.105Z,100048.00
2022-10-17T05:13:25.631Z,100054.91
2022-10-17T05:15:59.321Z,100042.16
2022-10-17T05:18:28.257Z,100050.41
2022-10-17T05:20:57.388Z,100049.03
2022-10-17T05:23:26.294Z,100047.88
2022-10-17T05:25:58.188Z,100053.47
2022-10-17T05:28:28.691Z,100049.16
2022-10-17T05:31:05.564Z,100046.53
2022-10-17T05:33:34.403Z,100051.22
2022-10-17T05:36:03.225Z,100053.78
2022-10-17T05:38:31.769Z,100064.34
2022-10-17T05:41:00.852Z,100068.38
2022-10-17T05:43:30.529Z,100051.81
2022-10-17T05:45:59.094Z,100061.56
2022-10-17T05:48:30.412Z,100054.84
2022-10-17T05:51:01.024Z,100055.59
2022-10-17T05:53:32.294Z,100056.69
2022-10-17T05:56:07.176Z,100071.94
2022-10-17T05:58:49.690Z,100068.66
2022-10-17T06:01:30.919Z,100092.06
2022-10-17T06:04:00.973Z,100077.50
2022-10-17T06:06:29.460Z,100070.94
2022-10-17T06:08:58.005Z,100080.38
2022-10-17T06:11:31.841Z,100058.16
2022-10-17T06:14:01.089Z,100075.22
2022-10-17T06:16:30.874Z,100073.31
2022-10-17T06:19:00.783Z,100080.56
2022-10-17T06:21:29.659Z,100078.75
2022-10-17T06:24:08.086Z,100085.31
2022-10-17T06:26:38.655Z,100082.59
2022-10-17T06:29:09.362Z,100084.09
2022-10-17T06:31:44.679Z,100082.88
2022-10-17T06:34:14.961Z,100082.81
2022-10-17T06:36:43.700Z,100091.75
2022-10-17T06:39:12.965Z,100091.16
2022-10-17T06:41:51.325Z,100084.88
2022-10-17T06:44:22.379Z,100100.91
2022-10-17T06:46:58.186Z,100099.53
2022-10-17T06:49:28.615Z,100098.97
2022-10-17T06:52:35.824Z,100095.63
2022-10-17T06:55:43.053Z,100115.56
2022-10-17T06:58:25.052Z,100100.00
2022-10-17T07:01:26.733Z,100102.53
2022-10-17T07:03:58.982Z,100107.38
2022-10-17T07:06:29.180Z,100108.50
2022-10-17T07:09:02.774Z,100111.16
2022-10-17T07:11:31.251Z,100107.81
2022-10-17T07:14:00.093Z,100118.56
2022-10-17T07:16:28.767Z,100122.03
2022-10-17T07:19:04.934Z,100121.31
2022-10-17T07:21:39.347Z,100136.00
2022-10-17T07:24:10.104Z,100131.97
2022-10-17T07:26:39.767Z,100128.59
2022-10-17T07:29:08.598Z,100133.03
2022-10-17T07:31:41.527Z,100128.84
2022-10-17T07:34:10.181Z,100132.59
2022-10-17T07:36:40.172Z,100144.75
2022-10-17T07:39:09.634Z,100148.81
2022-10-17T07:41:39.632Z,100137.03
2022-10-17T07:44:08.711Z,100144.97
2022-10-17T07:46:43.475Z,100153.72
2022-10-17T07:49:14.875Z,100148.56
2022-10-17T07:51:44.853Z,100155.22
2022-10-17T07:54:14.152Z,100147.75
2022-10-17T07:56:42.562Z,100150.09
2022-10-17T07:59:11.191Z,100147.69
2022-10-17T08:01:39.615Z,100146.34
2022-10-17T08:04:08.049Z,100145.06
2022-10-17T08:06:36.511Z,100128.53
2022-10-17T08:09:07.011Z,100110.56
2022-10-17T08:11:36.642Z,100116.06
2022-10-17T08:14:05.156Z,100100.50
2022-10-17T08:16:33.616Z,100114.47
2022-10-17T08:19:02.641Z,100114.13
2022-10-17T08:21:31.363Z,100117.50
2022-10-17T08:24:00.197Z,100118.44
2022-10-17T08:26:30.808Z,100113.13
2022-10-17T08:28:59.506Z,100108.59
2022-10-17T08:31:28.443Z,100098.28
2022-10-17T08:33:56.980Z,100113.16
2022-10-17T08:36:25.718Z,100110.34
2022-10-17T08:38:54.159Z,100116.44
2022-10-17T08:41:37.718Z,100111.47
2022-10-17T08:44:16.613Z,100116.03
2022-10-17T08:46:49.311Z,100124.91
2022-10-17T08:49:23.009Z,100122.38
2022-10-17T08:51:55.856Z,100127.00
2022-10-17T08:54:33.332Z,100122.38
2022-10-17T08:57:03.276Z,100109.56
2022-10-17T08:59:33.575Z,100122.81
2022-10-17T09:02:05.473Z,100115.88
2022-10-17T09:04:56.439Z,100116.41
2022-10-17T09:07:33.793Z,100116.34
2022-10-17T09:10:11.732Z,100123.03
2022-10-17T09:12:50.232Z,100113.84
2022-10-17T09:15:39.000Z,100121.22
2022-10-17T09:18:12.932Z,100121.63
2022-10-17T09:20:46.882Z,100132.22
2022-10-17T09:23:19.814Z,100128.19
2022-10-17T09:25:51.266Z,100126.66
2022-10-17T09:28:27.156Z,100131.94
2022-10-17T09:31:00.822Z,100119.44
2022-10-17T09:33:42.274Z,100138.31
2022-10-17T09:36:24.214Z,100144.91
2022-10-17T09:38:55.776Z,100153.22
2022-10-17T09:41:44.717Z,100160.84
2022-10-17T09:44:21.989Z,100154.34
2022-10-17T09:47:24.388Z,100148.28
2022-10-17T09:49:53.382Z,100159.06
2022-10-17T09:52:26.431Z,100176.34
2022-10-17T09:54:59.097Z,100169.13
2022-10-17T09:57:27.625Z,100169.22
2022-10-17T10:00:02.484Z,100168.22
2022-10-17T10:02:33.708Z,100179.66
2022-10-17T10:05:06.302Z,100179.22
2022-10-17T10:07:38.514Z,100178.13
2022-10-17T10:10:15.640Z,100175.25
2022-10-17T10:13:03.758Z,100168.25
2022-10-17T10:15:37.907Z,100181.84
2022-10-17T10:21:10.093Z,100169.81
2022-10-17T10:23:41.202Z,100176.53
2022-10-17T10:26:25.041Z,100166.16
2022-10-17T10:28:58.344Z,100169.94
2022-10-17T10:31:36.981Z,100162.41
2022-10-17T10:34:17.538Z,100154.75
2022-10-17T10:36:50.032Z,100175.78
2022-10-17T10:39:37.406Z,100172.31
2022-10-17T10:42:10.362Z,100169.69
2022-10-17T10:44:42.186Z,100171.47
2022-10-17T10:47:24.727Z,100178.25
2022-10-17T10:50:07.482Z,100181.13
2022-10-17T10:52:42.775Z,100183.03
2022-10-17T10:55:26.657Z,100186.50
2022-10-17T10:57:59.649Z,100173.84
2022-10-17T11:00:31.016Z,100170.47
2022-10-17T11:03:12.835Z,100180.53
2022-10-17T11:05:47.498Z,100180.91
2022-10-17T11:08:25.783Z,100186.88
2022-10-17T11:11:18.168Z,100193.34
2022-10-17T11:13:54.069Z,100186.91
2022-10-17T11:16:32.462Z,100192.84
2022-10-17T11:19:13.576Z,100201.97
2022-10-17T11:21:48.618Z,100202.72
2022-10-17T11:24:24.834Z,100207.28
2022-10-17T11:27:00.176Z,100205.41
2022-10-17T11:29:32.317Z,100203.94
2022-10-17T11:32:07.150Z,100193.03
2022-10-17T11:34:42.995Z,100182.53
2022-10-17T11:37:16.458Z,100186.66
2022-10-17T11:39:50.014Z,100192.03
2022-10-17T11:42:24.932Z,100190.66
2022-10-17T11:44:58.167Z,100192.97
2022-10-17T11:47:38.472Z,100189.56
2022-10-17T11:53:15.398Z,100185.72
2022-10-17T11:55:45.527Z,100194.84
2022-10-17T11:58:37.691Z,100183.63
2022-10-17T12:01:16.714Z,100189.00
2022-10-17T12:03:54.437Z,100199.56
2022-10-17T12:06:43.696Z,100185.13
2022-10-17T12:09:25.320Z,100201.59
2022-10-17T12:11:57.120Z,100200.53
2022-10-17T12:14:41.276Z,100204.94
2022-10-17T12:17:29.296Z,100197.25
2022-10-17T12:20:27.412Z,100192.75
2022-10-17T12:23:00.338Z,100190.16
2022-10-17T12:25:31.633Z,100205.59
2022-10-17T12:28:13.434Z,100196.47
2022-10-17T12:30:55.169Z,100199.63
2022-10-17T12:33:39.732Z,100190.06
2022-10-17T12:36:44.869Z,100201.88
2022-10-17T12:39:52.428Z,100201.19
2022-10-17T12:42:52.313Z,100199.63
2022-10-17T12:45:49.210Z,100196.34
2022-10-17T12:48:57.083Z,100196.63
2022-10-17T12:51:40.745Z,100193.22
2022-10-17T12:54:13.667Z,100195.56
2022-10-17T12:56:44.804Z,100188.88
2022-10-17T12:59:18.933Z,100188.41
2022-10-17T13:01:50.885Z,100181.09
2022-10-17T13:04:19.690Z,100185.69
2022-10-17T13:06:50.531Z,100188.38
2022-10-17T13:09:25.707Z,100186.88
2022-10-17T13:11:55.408Z,100189.41
2022-10-17T13:14:27.043Z,100167.94
2022-10-17T13:16:57.625Z,100175.00
2022-10-17T13:19:29.781Z,100161.63
2022-10-17T13:22:06.330Z,100180.13
2022-10-17T13:24:37.404Z,100174.47
2022-10-17T13:27:07.274Z,100185.88
2022-10-17T13:29:45.185Z,100174.63
2022-10-17T13:32:13.987Z,100180.25
2022-10-17T13:34:42.434Z,100175.41
2022-10-17T13:37:16.626Z,100165.44
2022-10-17T13:40:00.297Z,100170.31
2022-10-17T13:42:40.508Z,100180.22
2022-10-17T13:45:20.245Z,100175.97
2022-10-17T13:47:49.423Z,100172.88
2022-10-17T13:50:44.085Z,100178.53
2022-10-17T13:53:25.690Z,100180.75
2022-10-17T13:56:22.952Z,100173.69
2022-10-17T13:58:50.228Z,100175.09
2022-10-17T14:01:21.917Z,100169.56
2022-10-17T14:04:02.026Z,100166.28
2022-10-17T14:06:45.096Z,100175.41
2022-10-17T14:09:23.970Z,100170.13
2022-10-17T14:12:02.011Z,100167.34
2022-10-17T14:14:46.181Z,100178.66
2022-10-17T14:17:26.137Z,100178.28
2022-10-17T14:20:26.261Z,100188.94
2022-10-17T14:23:04.394Z,100181.47
2022-10-17T14:25:37.943Z,100170.66
2022-10-17T14:28:15.955Z,100177.28
2022-10-17T14:31:01.152Z,100176.91
2022-10-17T14:33:33.900Z,100174.38
2022-10-17T14:36:05.691Z,100166.19
2022-10-17T14:38:36.049Z,100178.38
2022-10-17T14:41:37.742Z,100174.06
2022-10-17T14:44:03.280Z,100177.97
2022-10-17T14:46:32.075Z,100174.53
2022-10-17T14:49:07.138Z,100174.13
2022-10-17T14:51:50.251Z,100169.53
2022-10-17T14:54:29.249Z,100176.50
2022-10-17T14:56:57.673Z,100177.94
2022-10-17T14:59:52.349Z,100178.53
2022-10-17T15:02:14.972Z,100182.34
2022-10-17T15:04:44.829Z,100185.88
2022-10-17T15:07:16.420Z,100177.41
2022-10-17T15:09:46.147Z,100176.13
2022-10-17T15:12:17.070Z,100181.19
2022-10-17T15:14:45.922Z,100179.59
2022-10-17T15:17:16.859Z,100190.66
2022-10-17T15:19:46.818Z,100188.94
2022-10-17T15:22:16.342Z,100191.19
2022-10-17T15:24:46.303Z,100187.22
2022-10-17T15:27:19.726Z,100196.69
2022-10-17T15:29:48.918Z,100195.13
2022-10-17T15:32:18.384Z,100190.06
2022-10-17T15:34:48.282Z,100204.44
2022-10-17T15:37:21.023Z,100189.50
2022-10-17T15:39:53.725Z,100197.19
2022-10-17T15:42:23.449Z,100195.41
2022-10-17T15:44:52.138Z,100192.03
2022-10-17T15:47:26.309Z,100194.09
2022-10-17T15:49:56.430Z,100194.69
2022-10-17T15:52:25.935Z,100185.59
2022-10-17T15:54:56.509Z,100184.00
2022-10-17T15:57:29.859Z,100176.69
2022-10-17T16:00:00.937Z,100186.66
2022-10-17T16:02:29.553Z,100186.56
2022-10-17T16:04:59.381Z,100197.03
2022-10-17T16:07:28.004Z,100195.13
2022-10-17T16:09:56.640Z,100180.69
2022-10-17T16:12:31.262Z,100184.09
2022-10-17T16:14:59.917Z,100192.97
2022-10-17T16:17:28.574Z,100200.13
2022-10-17T16:19:57.221Z,100195.16
2022-10-17T16:22:32.540Z,100196.41
2022-10-17T16:25:08.003Z,100195.91
2022-10-17T16:27:36.541Z,100212.63
2022-10-17T16:30:06.685Z,100213.53
2022-10-17T16:32:35.596Z,100209.41
2022-10-17T16:35:04.197Z,100201.94
2022-10-17T16:37:34.102Z,100204.31
2022-10-17T16:40:02.542Z,100206.97
2022-10-17T16:42:31.135Z,100210.72
2022-10-17T16:45:00.160Z,100204.88
2022-10-17T16:47:28.602Z,100216.16
2022-10-17T16:49:57.291Z,100215.34
2022-10-17T16:52:25.702Z,100204.66
2022-10-17T16:54:55.509Z,100207.16
2022-10-17T16:57:24.513Z,100195.41
2022-10-17T16:59:53.341Z,100205.09
2022-10-17T17:02:21.845Z,100203.53
2022-10-17T17:04:50.367Z,100209.38
2022-10-17T17:07:20.012Z,100207.16
2022-10-17T17:09:49.042Z,100203.41
2022-10-17T17:12:18.928Z,100198.34
2022-10-17T17:14:47.424Z,100208.44
2022-10-17T17:17:24.647Z,100209.63
2022-10-17T17:20:04.936Z,100205.09
2022-10-17T17:22:33.423Z,100221.34
2022-10-17T17:25:01.936Z,100199.91
2022-10-17T17:27:32.185Z,100217.53
2022-10-17T17:30:00.760Z,100212.94
2022-10-17T17:32:29.199Z,100217.88
2022-10-17T17:34:57.654Z,100222.88
2022-10-17T17:37:26.589Z,100221.13
2022-10-17T17:39:55.189Z,100214.72
2022-10-17T17:42:23.700Z,100219.91
2022-10-17T17:44:53.537Z,100227.81
2022-10-17T17:47:22.712Z,100225.91
2022-10-17T17:49:51.398Z,100236.06
2022-10-17T17:52:20.246Z,100234.47
2022-10-17T17:54:48.660Z,100242.81
2022-10-17T17:57:18.308Z,100233.56
2022-10-17T17:59:48.631Z,100248.88
2022-10-17T18:02:18.833Z,100255.19
2022-10-17T18:04:47.476Z,100251.59
2022-10-17T18:07:15.923Z,100252.28
2022-10-17T18:09:44.420Z,100240.66
2022-10-17T18:12:12.910Z,100260.25
2022-10-17T18:14:41.636Z,100263.88
2022-10-17T18:17:10.139Z,100257.53
2022-10-17T18:19:40.065Z,100272.47
2022-10-17T18:22:08.447Z,100262.66
2022-10-17T18:24:36.996Z,100277.78
2022-10-17T18:27:05.626Z,100278.13
2022-10-17T18:29:34.529Z,100273.47
2022-10-17T18:32:03.059Z,100276.06
2022-10-17T18:34:31.525Z,100276.91
2022-10-17T18:37:02.730Z,100271.25
2022-10-17T18:39:31.246Z,100278.69
2022-10-17T18:42:00.023Z,100286.31
2022-10-17T18:44:28.739Z,100290.97
2022-10-17T18:47:02.999Z,100288.25
2022-10-17T18:49:33.088Z,100307.53
2022-10-17T18:52:02.961Z,100291.69
2022-10-17T18:54:33.563Z,100312.97
2022-10-17T18:57:02.126Z,100317.13
2022-10-17T18:59:30.554Z,100309.47
2022-10-17T19:01:59.065Z,100315.88
2022-10-17T19:04:27.884Z,100312.72
2022-10-17T19:06:56.388Z,100306.38
2022-10-17T19:09:26.515Z,100310.31
2022-10-17T19:11:55.352Z,100320.72
2022-10-17T19:14:23.789Z,100327.28
2022-10-17T19:16:52.536Z,100333.78
2022-10-17T19:19:22.983Z,100333.72
2022-10-17T19:21:51.877Z,100337.63
2022-10-17T19:24:22.027Z,100331.22
2022-10-17T19:26:53.829Z,100334.63
2022-10-17T19:29:24.374Z,100337.13
2022-10-17T19:31:53.528Z,100330.09
2022-10-17T19:34:22.025Z,100330.59
2022-10-17T19:36:50.684Z,100333.19
2022-10-17T19:39:22.815Z,100331.44
2022-10-17T19:41:53.072Z,100339.16
2022-10-17T19:44:21.528Z,100333.56
2022-10-17T19:46:49.971Z,100339.16
2022-10-17T19:49:19.082Z,100343.19
2022-10-17T19:51:47.838Z,100338.69
2022-10-17T19:54:18.799Z,100337.88
2022-10-17T19:56:47.372Z,100336.50
2022-10-17T19:59:18.439Z,100338.25
2022-10-17T20:01:47.459Z,100331.28
2022-10-17T20:04:15.995Z,100332.28
2022-10-17T20:06:44.493Z,100331.81
2022-10-17T20:09:16.711Z,100330.19
2022-10-17T20:11:50.387Z,100322.16
2022-10-17T20:14:20.191Z,100336.91
2022-10-17T20:16:53.225Z,100324.34
2022-10-17T20:19:22.014Z,100320.22
2022-10-17T20:21:50.488Z,100315.94
2022-10-17T20:24:19.041Z,100329.47
2022-10-17T20:26:47.588Z,100315.56
2022-10-17T20:29:23.709Z,100318.63
2022-10-17T20:31:53.506Z,100310.34
2022-10-17T20:34:21.919Z,100299.66
2022-10-17T20:36:50.747Z,100310.22
2022-10-17T20:39:35.332Z,100305.09
2022-10-17T20:42:03.880Z,100303.16
2022-10-17T20:44:32.565Z,100301.50
2022-10-17T20:47:02.967Z,100306.75
2022-10-17T20:49:33.497Z,100299.56
2022-10-17T20:52:02.558Z,100306.19
2022-10-17T20:54:32.506Z,100309.53
2022-10-17T20:57:04.053Z,100312.59
2022-10-17T20:59:34.430Z,100318.31
2022-10-17T21:02:04.848Z,100318.69
2022-10-17T21:04:46.290Z,100318.88
2022-10-17T21:07:16.082Z,100316.97
2022-10-17T21:09:45.530Z,100304.63
2022-10-17T21:12:21.637Z,100306.75
2022-10-17T21:14:59.983Z,100308.41
2022-10-17T21:17:29.968Z,100313.97
2022-10-17T21:19:58.983Z,100312.88
2022-10-17T21:22:27.555Z,100310.97
2022-10-17T21:24:56.680Z,100317.19
2022-10-17T21:27:25.104Z,100309.16
2022-10-17T21:29:53.615Z,100313.88
2022-10-17T21:32:33.475Z,100309.16
2022-10-17T21:35:10.628Z,100316.41
2022-10-17T21:37:39.108Z,100316.81
2022-10-17T21:40:08.819Z,100314.19
2022-10-17T21:42:37.291Z,100324.44
2022-10-17T21:45:15.357Z,100314.59
2022-10-17T21:48:11.631Z,100323.31
2022-10-17T21:50:38.515Z,100328.72
2022-10-17T21:53:07.173Z,100331.38
2022-10-17T21:55:38.519Z,100331.81
2022-10-17T21:58:07.192Z,100336.94
2022-10-17T22:00:35.614Z,100335.00
2022-10-17T22:03:04.208Z,100324.19
2022-10-17T22:05:32.738Z,100330.41
2022-10-17T22:08:02.878Z,100343.59
2022-10-17T22:10:31.391Z,100329.00
2022-10-17T22:12:59.923Z,100326.63
2022-10-17T22:15:28.343Z,100320.50
2022-10-17T22:17:57.347Z,100327.31
2022-10-17T22:20:25.949Z,100318.31
2022-10-17T22:22:54.390Z,100324.28
2022-10-17T22:25:48.280Z,100328.59
2022-10-17T22:28:20.054Z,100320.53
2022-10-17T22:30:48.583Z,100314.84
2022-10-17T22:33:17.094Z,100306.25
2022-10-17T22:35:52.535Z,100285.53
2022-10-17T22:38:21.007Z,100303.72
2022-10-17T22:40:50.905Z,100304.28
2022-10-17T22:43:19.308Z,100299.94
2022-10-17T22:45:53.654Z,100289.00
2022-10-17T22:48:22.325Z,100296.78
2022-10-17T22:50:51.330Z,100293.19
2022-10-17T22:53:24.062Z,100281.50
2022-10-17T22:55:54.942Z,100284.44
2022-10-17T22:58:24.512Z,100288.03
2022-10-17T23:00:53.967Z,100283.19
2022-10-17T23:03:24.214Z,100288.88
2022-10-17T23:05:52.836Z,100277.72
2022-10-17T23:08:21.883Z,100282.00
2022-10-17T23:10:50.502Z,100268.22
2022-10-17T23:13:21.424Z,100263.31
2022-10-17T23:15:52.923Z,100264.38
2022-10-17T23:18:22.781Z,100265.00
2022-10-17T23:20:51.745Z,100266.28
2022-10-17T23:23:20.915Z,100263.25
2022-10-17T23:25:49.909Z,100253.25
2022-10-17T23:28:19.785Z,100250.38
2022-10-17T23:30:48.282Z,100243.72
2022-10-17T23:33:16.782Z,100245.91
2022-10-17T23:35:45.428Z,100250.00
2022-10-17T23:38:13.914Z,100248.22
2022-10-17T23:40:42.414Z,100237.22
2022-10-17T23:43:10.844Z,100223.78
2022-10-17T23:48:14.065Z,100230.69
2022-10-17T23:50:42.533Z,100239.44
2022-10-17T23:53:11.070Z,100232.75
2022-10-17T23:55:39.834Z,100230.81
2022-10-17T23:58:08.310Z,100220.81
